Time;durP1;ratioP1;P1;durP2;ratioP2;P2;SDS_P1;SDS_P2;PMS_P1;PMS_P2;Temp;Humidity;BMP_temperature;BMP_pressure;BME280_temperature;BME280_humidity;BME280_pressure;Samples;Min_cycle;Max_cycle;Signal;HPM_P1;HPM_P2
2022/12/30 00:01:22;;;;;;;12.57;3.20;;;;;;;-145.18;100.00;60484.78;5052994;28;20025;-63
2022/12/30 00:03:47;;;;;;;13.13;3.07;;;;;;;-145.18;100.00;60484.78;5051877;28;20459;-64
2022/12/30 00:06:17;;;;;;;15.30;3.23;;;;;;;-145.18;100.00;60484.78;5039610;28;20017;-64
2022/12/30 00:08:47;;;;;;;18.00;3.13;;;;;;;-145.18;100.00;60484.78;5045875;28;20106;-64
2022/12/30 00:11:14;;;;;;;19.90;3.83;;;;;;;-145.18;100.00;60484.78;5040021;28;20029;-64
2022/12/30 00:33:22;;;;;;;14.03;3.17;;;;;;;-145.18;100.00;60484.78;5037869;28;20596;-63
2022/12/30 00:35:48;;;;;;;11.63;3.50;;;;;;;-145.18;100.00;60484.78;5037423;28;20036;-63
2022/12/30 00:38:13;;;;;;;18.17;3.30;;;;;;;-145.18;100.00;60484.78;5033940;28;20017;-64
2022/12/30 00:43:07;;;;;;;13.27;3.60;;;;;;;-145.18;100.00;60484.78;5034321;28;20060;-64
2022/12/30 00:43:25;;;;;;;14.10;3.87;;;;;;;-145.18;100.00;60484.78;5035936;28;20048;-64
2022/12/30 00:45:50;;;;;;;12.40;2.87;;;;;;;-145.18;100.00;60484.78;5054168;28;20032;-64
2022/12/30 00:56:27;;;;;;;17.40;3.27;;;;;;;-145.18;100.00;60484.78;5033830;28;20171;-63
2022/12/30 00:58:53;;;;;;;14.70;3.30;;;;;;;-145.18;100.00;60484.78;5033850;28;20029;-64
2022/12/30 01:01:18;;;;;;;14.17;3.10;;;;;;;-145.18;100.00;60484.78;5047116;28;20020;-63
2022/12/30 01:03:43;;;;;;;14.47;2.80;;;;;;;-145.18;100.00;60484.78;5039174;28;20029;-63
2022/12/30 01:06:10;;;;;;;17.33;4.00;;;;;;;-145.18;100.00;60484.78;5033685;28;20025;-64
2022/12/30 01:08:36;;;;;;;22.03;4.37;;;;;;;-145.18;100.00;60484.78;5035939;28;20029;-65
2022/12/30 01:11:06;;;;;;;17.17;3.37;;;;;;;-145.18;100.00;60484.78;5038464;28;20087;-64
2022/12/30 01:13:31;;;;;;;16.07;3.27;;;;;;;-145.18;100.00;60484.78;5036465;28;20362;-63
2022/12/30 01:15:57;;;;;;;14.67;3.30;;;;;;;-145.18;100.00;60484.78;5033250;28;20037;-63
2022/12/30 01:18:23;;;;;;;13.67;3.13;;;;;;;-145.18;100.00;60484.78;5047175;28;20720;-64
2022/12/30 01:20:48;;;;;;;18.20;3.30;;;;;;;-145.18;100.00;60484.78;5036093;28;20465;-63
2022/12/30 01:23:13;;;;;;;17.57;3.50;;;;;;;-145.18;100.00;60484.78;5036445;28;20485;-64
2022/12/30 01:25:40;;;;;;;19.70;4.03;;;;;;;-145.18;100.00;60484.78;5051471;28;20366;-63
2022/12/30 01:28:05;;;;;;;12.83;3.37;;;;;;;-145.18;100.00;60484.78;5058926;28;20488;-64
2022/12/30 01:30:31;;;;;;;16.90;3.80;;;;;;;-145.18;100.00;60484.78;5053350;28;20048;-64
2022/12/30 01:32:56;;;;;;;17.33;3.43;;;;;;;-145.18;100.00;60484.78;5047293;28;20052;-63
2022/12/30 01:35:22;;;;;;;18.00;3.63;;;;;;;-145.18;100.00;60484.78;5048847;28;20031;-63
2022/12/30 01:37:47;;;;;;;20.33;3.57;;;;;;;-145.18;100.00;60484.78;5052931;28;20025;-64
2022/12/30 01:40:12;;;;;;;18.03;3.63;;;;;;;-145.18;100.00;60484.78;5050056;28;20257;-63
2022/12/30 01:42:40;;;;;;;13.17;3.73;;;;;;;-145.18;100.00;60484.78;5049403;28;20532;-63
2022/12/30 01:45:19;;;;;;;12.03;3.63;;;;;;;-145.18;100.00;60484.78;5049329;28;20062;-63
2022/12/30 01:48:06;;;;;;;15.90;2.93;;;;;;;-145.18;100.00;60484.78;5043721;28;20172;-64
2022/12/30 01:50:42;;;;;;;12.53;3.30;;;;;;;-145.18;100.00;60484.78;5052330;28;20465;-64
2022/12/30 01:53:15;;;;;;;16.97;3.63;;;;;;;-145.18;100.00;60484.78;5043422;28;20029;-63
2022/12/30 01:56:02;;;;;;;16.90;3.80;;;;;;;-145.18;100.00;60484.78;5037181;28;20036;-64
2022/12/30 01:58:35;;;;;;;17.10;3.83;;;;;;;-145.18;100.00;60484.78;5050525;28;20063;-63
2022/12/30 02:01:00;;;;;;;18.43;3.50;;;;;;;-145.18;100.00;60484.78;5052919;28;20055;-63
2022/12/30 02:03:31;;;;;;;14.33;3.20;;;;;;;-145.18;100.00;60484.78;5049496;28;20488;-63
2022/12/30 02:05:57;;;;;;;14.45;2.75;;;;;;;-145.18;100.00;60484.78;5050087;28;20055;-63
2022/12/30 02:08:23;;;;;;;13.77;3.33;;;;;;;-145.18;100.00;60484.78;5046225;28;20493;-64
2022/12/30 02:10:52;;;;;;;18.90;3.63;;;;;;;-145.18;100.00;60484.78;5052393;28;20036;-63
2022/12/30 02:13:20;;;;;;;10.47;3.07;;;;;;;-145.18;100.00;60484.78;5051451;28;20472;-63
2022/12/30 02:15:52;;;;;;;12.03;3.70;;;;;;;-145.18;100.00;60484.78;5052313;28;20070;-63
2022/12/30 02:18:42;;;;;;;15.80;3.17;;;;;;;-145.18;100.00;60484.78;5052520;28;20167;-63
2022/12/30 02:21:24;;;;;;;14.17;3.43;;;;;;;-145.18;100.00;60484.78;5048146;28;20050;-63
2022/12/30 02:24:04;;;;;;;;;;;;;;;-145.18;100.00;60484.78;5052937;28;20513;-63
2022/12/30 02:26:48;;;;;;;14.83;2.77;;;;;;;-145.18;100.00;60484.78;5036187;28;19909;-63
2022/12/30 02:29:22;;;;;;;10.67;2.67;;;;;;;-145.18;100.00;60484.78;5049373;28;20037;-63
2022/12/30 02:32:08;;;;;;;17.23;3.77;;;;;;;-145.18;100.00;60484.78;5052200;28;20388;-64
2022/12/30 02:34:44;;;;;;;13.73;3.67;;;;;;;-145.18;100.00;60484.78;5051023;28;20025;-63
2022/12/30 02:37:31;;;;;;;14.47;4.17;;;;;;;-145.18;100.00;60484.78;5050557;28;20036;-63
2022/12/30 02:40:11;;;;;;;12.63;2.90;;;;;;;-145.18;100.00;60484.78;5052280;28;20511;-64
2022/12/30 02:45:36;;;;;;;13.93;3.07;;;;;;;-145.18;100.00;60484.78;5052156;28;20135;-63
2022/12/30 02:48:08;;;;;;;20.17;4.40;;;;;;;-145.18;100.00;60484.78;5046043;28;20054;-64
2022/12/30 02:53:32;;;;;;;12.83;2.97;;;;;;;-145.18;100.00;60484.78;5024863;28;20034;-64
2022/12/30 02:55:58;;;;;;;15.80;4.40;;;;;;;-145.18;100.00;60484.78;5052034;28;20112;-64
2022/12/30 02:58:26;;;;;;;14.60;3.27;;;;;;;-145.18;100.00;60484.78;5050994;28;20152;-64
2022/12/30 03:03:57;;;;;;;13.03;3.10;;;;;;;-145.18;100.00;60484.78;5043059;28;20673;-64
2022/12/30 03:06:25;;;;;;;18.83;3.30;;;;;;;-145.18;100.00;60484.78;5051095;28;20025;-63
2022/12/30 03:09:06;;;;;;;18.17;3.90;;;;;;;-145.18;100.00;60484.78;5051461;28;20077;-63
2022/12/30 03:11:41;;;;;;;20.67;3.70;;;;;;;-145.18;100.00;60484.78;5051807;28;20162;-63
2022/12/30 03:14:21;;;;;;;14.47;3.17;;;;;;;-145.18;100.00;60484.78;5050417;28;20032;-64
2022/12/30 03:17:10;;;;;;;21.23;3.60;;;;;;;-145.18;100.00;60484.78;5051006;28;20377;-63
2022/12/30 03:19:39;;;;;;;13.77;3.50;;;;;;;-145.18;100.00;60484.78;5050504;28;20029;-64
2022/12/30 03:27:03;;;;;;;16.93;3.70;;;;;;;-145.18;100.00;60484.78;5051812;28;20033;-64
2022/12/30 03:27:42;;;;;;;18.43;4.20;;;;;;;-145.18;100.00;60484.78;5049694;28;20139;-63
2022/12/30 03:30:08;;;;;;;18.33;4.23;;;;;;;-145.18;100.00;60484.78;5051047;28;20495;-64
2022/12/30 03:32:34;;;;;;;18.30;4.93;;;;;;;-145.18;100.00;60484.78;5032251;28;20472;-64
2022/12/30 03:35:00;;;;;;;21.00;4.87;;;;;;;-145.18;100.00;60484.78;5048174;28;20071;-64
2022/12/30 03:37:33;;;;;;;20.33;4.53;;;;;;;-145.18;100.00;60484.78;5049747;28;20035;-64
2022/12/30 03:40:05;;;;;;;16.90;3.97;;;;;;;-145.18;100.00;60484.78;5049607;28;20032;-64
2022/12/30 03:42:31;;;;;;;19.40;4.47;;;;;;;-145.18;100.00;60484.78;5048760;28;20045;-64
2022/12/30 03:44:57;;;;;;;14.77;3.90;;;;;;;-145.18;100.00;60484.78;5031046;28;20026;-64
2022/12/30 03:47:23;;;;;;;17.53;4.47;;;;;;;-145.18;100.00;60484.78;5037165;28;20036;-64
2022/12/30 03:49:48;;;;;;;18.43;4.77;;;;;;;-145.18;100.00;60484.78;5044682;28;20461;-64
2022/12/30 03:52:15;;;;;;;18.43;3.70;;;;;;;-145.18;100.00;60484.78;5038607;28;20384;-63
2022/12/30 03:54:42;;;;;;;18.23;5.03;;;;;;;-145.18;100.00;60484.78;5049543;28;20028;-63
2022/12/30 03:57:08;;;;;;;16.20;4.60;;;;;;;-145.18;100.00;60484.78;5043608;28;20099;-63
2022/12/30 03:59:33;;;;;;;17.33;4.93;;;;;;;-145.18;100.00;60484.78;5037952;28;20088;-63
2022/12/30 04:01:59;;;;;;;16.57;4.80;;;;;;;-145.18;100.00;60484.78;5030960;28;20045;-63
2022/12/30 04:04:24;;;;;;;17.50;4.87;;;;;;;-145.18;100.00;60484.78;5042363;28;20102;-64
2022/12/30 04:06:50;;;;;;;18.07;5.33;;;;;;;-145.18;100.00;60484.78;5047086;28;20025;-64
2022/12/30 04:09:15;;;;;;;15.10;3.77;;;;;;;-145.18;100.00;60484.78;5050140;28;20444;-64
2022/12/30 04:11:40;;;;;;;23.20;4.97;;;;;;;-145.18;100.00;60484.78;5049859;28;20021;-64
2022/12/30 04:14:06;;;;;;;22.13;5.37;;;;;;;-145.18;100.00;60484.78;5060587;28;20028;-63
2022/12/30 04:16:31;;;;;;;16.30;4.87;;;;;;;-145.18;100.00;60484.78;5065201;28;20021;-64
2022/12/30 04:18:56;;;;;;;16.93;4.63;;;;;;;-145.18;100.00;60484.78;5054008;28;20032;-63
2022/12/30 04:21:22;;;;;;;19.13;3.93;;;;;;;-145.18;100.00;60484.78;5067307;28;20028;-63
2022/12/30 04:23:47;;;;;;;18.53;5.27;;;;;;;-145.18;100.00;60484.78;5057452;28;20059;-64
2022/12/30 04:26:13;;;;;;;27.73;6.27;;;;;;;-145.18;100.00;60484.78;5062028;28;20679;-63
2022/12/30 04:28:38;;;;;;;19.97;4.20;;;;;;;-145.18;100.00;60484.78;5048891;28;20025;-64
2022/12/30 04:31:04;;;;;;;16.43;4.40;;;;;;;-145.18;100.00;60484.78;5063135;28;20035;-63
2022/12/30 04:33:29;;;;;;;16.80;5.10;;;;;;;-145.18;100.00;60484.78;5056162;28;20021;-64
2022/12/30 04:35:55;;;;;;;13.53;2.93;;;;;;;-145.18;100.00;60484.78;5070862;28;20060;-64
2022/12/30 04:38:21;;;;;;;21.07;4.20;;;;;;;-145.18;100.00;60484.78;5054510;28;20055;-63
2022/12/30 04:40:46;;;;;;;16.33;3.77;;;;;;;-145.18;100.00;60484.78;5064612;28;20024;-63
2022/12/30 04:43:12;;;;;;;15.77;3.87;;;;;;;-145.18;100.00;60484.78;5065988;28;20499;-63
2022/12/30 04:45:37;;;;;;;10.50;4.10;;;;;;;-145.18;100.00;60484.78;5055558;28;20021;-63
2022/12/30 04:48:03;;;;;;;19.03;4.37;;;;;;;-145.18;100.00;60484.78;5068536;28;20060;-64
2022/12/30 04:50:28;;;;;;;15.27;4.70;;;;;;;-145.18;100.00;60484.78;5059451;28;20096;-63
2022/12/30 04:52:54;;;;;;;17.27;4.73;;;;;;;-145.18;100.00;60484.78;5064761;28;20029;-64
2022/12/30 04:55:19;;;;;;;18.70;4.87;;;;;;;-145.18;100.00;60484.78;5057745;28;20089;-64
2022/12/30 04:57:45;;;;;;;14.13;4.37;;;;;;;-145.18;100.00;60484.78;5065978;28;20169;-65
2022/12/30 05:00:11;;;;;;;16.67;4.70;;;;;;;-145.18;100.00;60484.78;5070471;28;20021;-63
2022/12/30 05:02:37;;;;;;;20.17;4.70;;;;;;;-145.18;100.00;60484.78;5050043;28;20043;-64
2022/12/30 05:05:03;;;;;;;20.87;4.57;;;;;;;-145.18;100.00;60484.78;5063477;28;20123;-63
2022/12/30 05:07:28;;;;;;;17.50;4.27;;;;;;;-145.18;100.00;60484.78;5059998;28;20032;-63
2022/12/30 05:09:53;;;;;;;12.97;3.73;;;;;;;-145.18;100.00;60484.78;5063167;28;20481;-63
2022/12/30 05:12:19;;;;;;;15.77;4.77;;;;;;;-145.18;100.00;60484.78;5058307;28;20107;-63
2022/12/30 05:14:44;;;;;;;17.67;5.07;;;;;;;-145.18;100.00;60484.78;5065039;28;20387;-63
2022/12/30 05:17:09;;;;;;;16.43;4.97;;;;;;;-145.18;100.00;60484.78;5063565;28;20480;-64
2022/12/30 05:19:35;;;;;;;21.30;4.00;;;;;;;-145.18;100.00;60484.78;5057473;28;20032;-64
2022/12/30 05:22:00;;;;;;;21.70;4.17;;;;;;;-145.18;100.00;60484.78;5070298;28;20111;-63
2022/12/30 05:27:09;;;;;;;18.10;4.33;;;;;;;-145.18;100.00;60484.78;5061566;28;20082;-63
2022/12/30 05:29:34;;;;;;;17.70;4.20;;;;;;;-145.18;100.00;60484.78;5048326;28;20033;-63
2022/12/30 05:32:00;;;;;;;18.53;4.77;;;;;;;-145.18;100.00;60484.78;5055767;28;20022;-63
2022/12/30 05:34:25;;;;;;;17.13;3.80;;;;;;;-145.18;100.00;60484.78;5052645;28;20188;-63
2022/12/30 05:36:50;;;;;;;18.00;3.87;;;;;;;-145.18;100.00;60484.78;5053031;28;20075;-63
2022/12/30 05:39:16;;;;;;;21.77;3.87;;;;;;;-145.18;100.00;60484.78;5048817;28;20036;-63
2022/12/30 05:41:41;;;;;;;16.80;3.63;;;;;;;-145.18;100.00;60484.78;5053378;28;20025;-63
2022/12/30 05:44:07;;;;;;;23.43;4.10;;;;;;;-145.18;100.00;60484.78;5053377;28;20099;-63
2022/12/30 05:46:32;;;;;;;18.43;3.80;;;;;;;-145.18;100.00;60484.78;5053271;28;20727;-63
2022/12/30 05:48:58;;;;;;;16.80;3.37;;;;;;;-145.18;100.00;60484.78;5051463;28;20086;-63
2022/12/30 05:51:23;;;;;;;15.13;3.70;;;;;;;-145.18;100.00;60484.78;5049932;28;20365;-63
2022/12/30 05:53:49;;;;;;;23.03;3.60;;;;;;;-145.18;100.00;60484.78;5052398;28;20103;-63
2022/12/30 05:56:14;;;;;;;16.60;3.17;;;;;;;-145.18;100.00;60484.78;5052874;28;20502;-63
2022/12/30 05:58:39;;;;;;;15.83;3.17;;;;;;;-145.18;100.00;60484.78;5042642;28;20163;-63
2022/12/30 06:01:05;;;;;;;19.03;4.00;;;;;;;-145.18;100.00;60484.78;5050139;28;20033;-63
2022/12/30 06:03:30;;;;;;;17.13;3.70;;;;;;;-145.18;100.00;60484.78;5050752;28;20081;-63
2022/12/30 06:06:02;;;;;;;19.57;3.63;;;;;;;-145.18;100.00;60484.78;5049231;28;20057;-63
2022/12/30 06:08:28;;;;;;;21.67;3.65;;;;;;;-145.18;100.00;60484.78;5040711;28;20057;-63
2022/12/30 06:10:53;;;;;;;21.23;3.97;;;;;;;-145.18;100.00;60484.78;5052539;28;20487;-63
2022/12/30 06:13:18;;;;;;;18.40;4.03;;;;;;;-145.18;100.00;60484.78;5052920;28;20017;-63
2022/12/30 06:15:44;;;;;;;25.10;3.50;;;;;;;-145.18;100.00;60484.78;5051594;28;20025;-63
2022/12/30 06:18:09;;;;;;;16.10;3.67;;;;;;;-145.18;100.00;60484.78;5052246;28;20118;-63
2022/12/30 06:20:35;;;;;;;18.43;3.60;;;;;;;-145.18;100.00;60484.78;5051771;28;20028;-64
2022/12/30 06:23:01;;;;;;;16.07;3.40;;;;;;;-145.18;100.00;60484.78;5050654;28;20071;-63
2022/12/30 06:25:26;;;;;;;26.10;4.73;;;;;;;-145.18;100.00;60484.78;5052650;28;20055;-63
2022/12/30 06:27:52;;;;;;;18.73;3.63;;;;;;;-145.18;100.00;60484.78;5052482;28;20029;-63
2022/12/30 06:30:18;;;;;;;27.90;3.90;;;;;;;-145.18;100.00;60484.78;5052046;28;20425;-63
2022/12/30 06:32:43;;;;;;;20.53;3.43;;;;;;;-145.18;100.00;60484.78;5041917;28;20033;-63
2022/12/30 06:35:09;;;;;;;22.83;3.77;;;;;;;-145.18;100.00;60484.78;5050701;28;20029;-63
2022/12/30 06:37:35;;;;;;;15.43;3.27;;;;;;;-145.18;100.00;60484.78;5036947;28;20029;-63
2022/12/30 06:40:00;;;;;;;19.03;3.47;;;;;;;-145.18;100.00;60484.78;5036973;28;20049;-63
2022/12/30 06:42:26;;;;;;;14.53;3.20;;;;;;;-145.18;100.00;60484.78;5040603;28;20025;-63
2022/12/30 06:44:51;;;;;;;17.43;3.30;;;;;;;-145.18;100.00;60484.78;5050429;28;20481;-62
2022/12/30 06:47:16;;;;;;;14.67;3.10;;;;;;;-145.18;100.00;60484.78;5051696;28;20071;-63
2022/12/30 06:49:42;;;;;;;13.03;2.57;;;;;;;-145.18;100.00;60484.78;5050464;28;20047;-62
2022/12/30 06:52:07;;;;;;;18.57;2.97;;;;;;;-145.18;100.00;60484.78;5051715;28;20024;-63
2022/12/30 06:54:33;;;;;;;19.50;4.27;;;;;;;-145.18;100.00;60484.78;5050934;28;20029;-63
2022/12/30 06:56:58;;;;;;;21.47;4.30;;;;;;;-145.18;100.00;60484.78;5043759;28;20021;-63
2022/12/30 06:59:23;;;;;;;22.57;4.03;;;;;;;-145.18;100.00;60484.78;5044863;28;20491;-64
2022/12/30 07:01:49;;;;;;;21.43;4.10;;;;;;;-145.18;100.00;60484.78;5052365;28;20033;-62
2022/12/30 07:04:14;;;;;;;19.67;4.40;;;;;;;-145.18;100.00;60484.78;5050621;28;20045;-62
2022/12/30 07:06:39;;;;;;;24.90;4.50;;;;;;;-145.18;100.00;60484.78;5050051;28;20132;-62
2022/12/30 07:09:05;;;;;;;21.77;4.87;;;;;;;-145.18;100.00;60484.78;5050434;28;20029;-62
2022/12/30 07:11:30;;;;;;;26.87;5.00;;;;;;;-145.18;100.00;60484.78;5051912;28;20055;-63
2022/12/30 07:13:56;;;;;;;25.70;5.10;;;;;;;-145.18;100.00;60484.78;5049902;28;20403;-63
2022/12/30 07:16:21;;;;;;;27.50;5.13;;;;;;;-145.18;100.00;60484.78;5051776;28;20059;-62
2022/12/30 07:18:46;;;;;;;30.60;5.87;;;;;;;-145.18;100.00;60484.78;5050363;28;20036;-63
2022/12/30 07:21:12;;;;;;;25.80;4.87;;;;;;;-145.18;100.00;60484.78;5051722;28;20531;-63
2022/12/30 07:23:37;;;;;;;22.20;5.47;;;;;;;-145.18;100.00;60484.78;5050170;28;20100;-63
2022/12/30 07:26:02;;;;;;;27.10;5.63;;;;;;;-145.18;100.00;60484.78;5050751;28;20050;-62
2022/12/30 07:28:28;;;;;;;33.97;5.43;;;;;;;-145.18;100.00;60484.78;5050865;28;20076;-63
2022/12/30 07:30:53;;;;;;;36.63;5.60;;;;;;;-145.18;100.00;60484.78;5051315;28;20094;-63
2022/12/30 07:33:18;;;;;;;21.77;5.13;;;;;;;-145.18;100.00;60484.78;5051326;28;20024;-62
2022/12/30 07:35:44;;;;;;;30.00;5.93;;;;;;;-145.18;100.00;60484.78;5049759;28;20091;-62
2022/12/30 07:38:09;;;;;;;28.57;5.40;;;;;;;-145.18;100.00;60484.78;5046642;28;20027;-63
2022/12/30 07:40:36;;;;;;;23.47;4.47;;;;;;;-145.18;100.00;60484.78;5033524;28;20033;-64
2022/12/30 07:43:02;;;;;;;22.40;4.80;;;;;;;-145.18;100.00;60484.78;5049451;28;20056;-62
2022/12/30 07:45:28;;;;;;;25.27;4.63;;;;;;;-145.18;100.00;60484.78;5038881;28;20476;-62
2022/12/30 07:47:53;;;;;;;17.67;4.57;;;;;;;-145.18;100.00;60484.78;5043112;28;20036;-63
2022/12/30 07:50:18;;;;;;;20.10;4.43;;;;;;;-145.18;100.00;60484.78;5041135;28;20029;-63
2022/12/30 07:52:44;;;;;;;23.93;4.67;;;;;;;-145.18;100.00;60484.78;5049835;28;20040;-62
2022/12/30 07:55:09;;;;;;;23.57;4.77;;;;;;;-145.18;100.00;60484.78;5046855;28;20075;-62
2022/12/30 07:57:34;;;;;;;22.47;4.33;;;;;;;-145.18;100.00;60484.78;5047096;28;20036;-63
2022/12/30 08:00:00;;;;;;;13.27;3.40;;;;;;;-145.18;100.00;60484.78;5045930;28;20439;-62
2022/12/30 08:02:25;;;;;;;30.47;4.70;;;;;;;-145.18;100.00;60484.78;5042517;28;20035;-63
2022/12/30 08:04:51;;;;;;;17.70;3.33;;;;;;;-145.18;100.00;60484.78;5045580;28;20044;-63
2022/12/30 08:07:17;;;;;;;15.40;3.10;;;;;;;-145.18;100.00;60484.78;5048446;28;20115;-62
2022/12/30 08:09:43;;;;;;;22.07;3.40;;;;;;;-145.18;100.00;60484.78;5041914;28;20515;-62
2022/12/30 08:12:09;;;;;;;17.77;3.40;;;;;;;-145.18;100.00;60484.78;5049283;28;20040;-64
2022/12/30 08:14:34;;;;;;;19.00;3.43;;;;;;;-145.18;100.00;60484.78;5042923;28;20374;-63
2022/12/30 08:17:00;;;;;;;17.80;4.83;;;;;;;-145.18;100.00;60484.78;5036518;28;20037;-62
2022/12/30 08:19:27;;;;;;;23.63;3.20;;;;;;;-145.18;100.00;60484.78;5046061;28;20041;-63
2022/12/30 08:21:52;;;;;;;17.07;2.77;;;;;;;-145.18;100.00;60484.78;5040774;28;20039;-63
2022/12/30 08:24:18;;;;;;;15.57;2.80;;;;;;;-145.18;100.00;60484.78;5046538;28;20389;-63
2022/12/30 08:26:43;;;;;;;13.80;2.70;;;;;;;-145.18;100.00;60484.78;5056350;28;20020;-64
2022/12/30 08:29:08;;;;;;;12.73;2.17;;;;;;;-145.18;100.00;60484.78;5048971;28;20456;-63
2022/12/30 08:31:34;;;;;;;15.57;2.83;;;;;;;-145.18;100.00;60484.78;5067932;28;20036;-64
2022/12/30 08:33:59;;;;;;;12.83;3.23;;;;;;;-145.18;100.00;60484.78;5041435;28;20033;-63
2022/12/30 08:36:27;;;;;;;12.60;2.33;;;;;;;-145.18;100.00;60484.78;5048102;28;20029;-63
2022/12/30 08:38:55;;;;;;;12.53;2.50;;;;;;;-145.18;100.00;60484.78;5045254;28;20033;-64
2022/12/30 08:41:26;;;;;;;11.20;2.50;;;;;;;-145.18;100.00;60484.78;5051655;28;20459;-63
2022/12/30 08:43:55;;;;;;;22.15;2.78;;;;;;;-145.18;100.00;60484.78;5053603;28;20103;-62
2022/12/30 08:46:21;;;;;;;16.17;2.67;;;;;;;-145.18;100.00;60484.78;5052297;28;20052;-63
2022/12/30 08:48:47;;;;;;;14.13;2.33;;;;;;;-145.18;100.00;60484.78;5051004;28;20131;-63
2022/12/30 08:51:12;;;;;;;11.30;2.23;;;;;;;-145.18;100.00;60484.78;5047893;28;20096;-63
2022/12/30 08:53:38;;;;;;;12.90;2.57;;;;;;;-145.18;100.00;60484.78;5053539;28;20082;-63
2022/12/30 08:56:04;;;;;;;10.37;2.27;;;;;;;-145.18;100.00;60484.78;5051681;28;20052;-63
2022/12/30 08:58:30;;;;;;;10.77;1.97;;;;;;;-145.18;100.00;60484.78;5044765;28;20033;-63
2022/12/30 09:00:56;;;;;;;7.20;1.93;;;;;;;-145.18;100.00;60484.78;5048830;28;20461;-63
2022/12/30 09:03:21;;;;;;;22.07;2.73;;;;;;;-145.18;100.00;60484.78;5053247;28;20108;-64
2022/12/30 09:05:54;;;;;;;11.00;2.40;;;;;;;-145.18;100.00;60484.78;5051467;28;20033;-63
2022/12/30 09:08:20;;;;;;;10.67;2.90;;;;;;;-145.18;100.00;60484.78;5038313;28;20029;-63
2022/12/30 09:11:02;;;;;;;13.03;2.23;;;;;;;-145.18;100.00;60484.78;5047969;28;20061;-62
2022/12/30 09:13:29;;;;;;;12.07;1.93;;;;;;;-145.18;100.00;60484.78;5039989;28;20025;-63
2022/12/30 09:15:54;;;;;;;18.17;2.47;;;;;;;-145.18;100.00;60484.78;5045835;28;20484;-63
2022/12/30 09:18:20;;;;;;;10.43;2.37;;;;;;;-145.18;100.00;60484.78;5033698;28;20030;-63
2022/12/30 09:20:45;;;;;;;10.63;2.07;;;;;;;-145.18;100.00;60484.78;5050860;28;20388;-63
2022/12/30 09:23:11;;;;;;;7.90;2.03;;;;;;;-145.18;100.00;60484.78;5048159;28;20025;-63
2022/12/30 09:25:36;;;;;;;12.67;2.00;;;;;;;-145.18;100.00;60484.78;5041986;28;20553;-63
2022/12/30 09:28:02;;;;;;;13.60;2.30;;;;;;;-145.18;100.00;60484.78;5045244;28;20040;-63
2022/12/30 09:30:27;;;;;;;11.57;2.07;;;;;;;-145.18;100.00;60484.78;5044624;28;20024;-63
2022/12/30 09:32:53;;;;;;;12.97;1.97;;;;;;;-145.18;100.00;60484.78;5044744;28;20037;-63
2022/12/30 09:35:18;;;;;;;15.07;2.43;;;;;;;-145.18;100.00;60484.78;5046294;28;20123;-63
2022/12/30 09:37:43;;;;;;;13.27;2.10;;;;;;;-145.18;100.00;60484.78;5044468;28;20031;-64
2022/12/30 09:40:19;;;;;;;12.87;2.33;;;;;;;-145.18;100.00;60484.78;5040180;28;20607;-63
2022/12/30 09:45:41;;;;;;;6.63;1.77;;;;;;;-145.18;100.00;60484.78;5047757;28;20025;-63
2022/12/30 09:48:14;;;;;;;16.50;2.27;;;;;;;-145.18;100.00;60484.78;5039121;28;20116;-63
2022/12/30 09:50:51;;;;;;;13.93;2.30;;;;;;;-145.18;100.00;60484.78;5051081;28;20021;-63
2022/12/30 09:53:41;;;;;;;10.87;2.07;;;;;;;-145.18;100.00;60484.78;5052969;28;20021;-63
2022/12/30 09:56:22;;;;;;;9.07;2.00;;;;;;;-145.18;100.00;60484.78;5049721;28;20044;-63
2022/12/30 09:58:48;;;;;;;17.87;2.90;;;;;;;-145.18;100.00;60484.78;5051695;28;20049;-62
2022/12/30 10:01:29;;;;;;;13.73;2.20;;;;;;;-145.18;100.00;60484.78;5045924;28;20066;-63
2022/12/30 10:03:57;;;;;;;11.65;2.10;;;;;;;-145.18;100.00;60484.78;5046845;28;20029;-62
2022/12/30 10:06:37;;;;;;;14.27;1.90;;;;;;;-145.18;100.00;60484.78;5052637;28;20027;-62
2022/12/30 10:09:38;;;;;;;9.17;1.77;;;;;;;-145.18;100.00;60484.78;5047729;28;20461;-63
2022/12/30 10:12:32;;;;;;;10.87;1.97;;;;;;;-145.18;100.00;60484.78;5050527;28;20479;-63
2022/12/30 10:15:24;;;;;;;8.30;1.70;;;;;;;-145.18;100.00;60484.78;5032312;28;20025;-62
2022/12/30 10:18:04;;;;;;;13.70;2.10;;;;;;;-145.18;100.00;60484.78;5038428;28;20067;-62
2022/12/30 10:20:51;;;;;;;11.83;1.93;;;;;;;-145.18;100.00;60484.78;5051321;28;20098;-62
2022/12/30 10:23:46;;;;;;;11.37;1.87;;;;;;;-145.18;100.00;60484.78;5039455;28;21005;-63
2022/12/30 10:26:24;;;;;;;12.43;2.10;;;;;;;-145.18;100.00;60484.78;5040447;28;20025;-62
2022/12/30 10:28:56;;;;;;;10.50;1.70;;;;;;;-145.18;100.00;60484.78;5039661;28;20130;-63
2022/12/30 10:31:26;;;;;;;10.98;2.60;;;;;;;-145.18;100.00;60484.78;5041160;28;20751;-63
2022/12/30 10:33:59;;;;;;;9.77;1.90;;;;;;;-145.18;100.00;60484.78;5038449;28;20062;-63
2022/12/30 10:36:40;;;;;;;10.83;1.87;;;;;;;-145.18;100.00;60484.78;5042668;28;20028;-62
2022/12/30 10:39:17;;;;;;;6.63;1.63;;;;;;;-145.18;100.00;60484.78;5038199;28;20041;-63
2022/12/30 10:41:51;;;;;;;4.97;1.27;;;;;;;-145.18;100.00;60484.78;5036697;28;20098;-63
2022/12/30 10:44:42;;;;;;;11.63;1.70;;;;;;;-145.18;100.00;60484.78;5039059;28;20555;-63
2022/12/30 10:47:10;;;;;;;7.70;1.63;;;;;;;-145.18;100.00;60484.78;5038902;28;20041;-63
2022/12/30 10:49:54;;;;;;;7.60;1.67;;;;;;;-145.18;100.00;60484.78;5041588;28;20424;-63
2022/12/30 10:52:20;;;;;;;9.57;1.97;;;;;;;-145.18;100.00;60484.78;5046617;28;20064;-63
2022/12/30 10:54:47;;;;;;;8.63;1.50;;;;;;;-145.18;100.00;60484.78;5043108;28;20047;-64
2022/12/30 10:57:21;;;;;;;9.60;2.10;;;;;;;-145.18;100.00;60484.78;5042210;28;20595;-63
2022/12/30 10:59:47;;;;;;;7.50;1.70;;;;;;;-145.18;100.00;60484.78;5045122;28;20029;-63
2022/12/30 11:02:28;;;;;;;6.93;1.57;;;;;;;-145.18;100.00;60484.78;5043345;28;20491;-63
2022/12/30 11:04:53;;;;;;;8.77;1.70;;;;;;;-145.18;100.00;60484.78;5043139;28;20587;-63
2022/12/30 11:07:20;;;;;;;13.07;3.63;;;;;;;-145.18;100.00;60484.78;5039600;28;20092;-62
2022/12/30 11:09:46;;;;;;;8.50;1.60;;;;;;;-145.18;100.00;60484.78;5032353;28;20124;-63
2022/12/30 11:15:05;;;;;;;6.73;1.43;;;;;;;-145.18;100.00;60484.78;5038967;28;20853;-62
2022/12/30 11:17:40;;;;;;;8.37;1.50;;;;;;;-145.18;100.00;60484.78;5045261;28;20443;-63
2022/12/30 11:20:36;;;;;;;8.57;1.57;;;;;;;-145.18;100.00;60484.78;5048248;28;20033;-63
2022/12/30 11:23:32;;;;;;;7.63;1.40;;;;;;;-145.18;100.00;60484.78;5039737;28;20485;-62
2022/12/30 11:26:01;;;;;;;7.23;1.60;;;;;;;-145.18;100.00;60484.78;5035294;28;20064;-62
2022/12/30 11:28:46;;;;;;;6.07;1.40;;;;;;;-145.18;100.00;60484.78;5048213;28;20028;-63
2022/12/30 11:31:15;;;;;;;8.40;1.43;;;;;;;-145.18;100.00;60484.78;5041998;28;21730;-63
2022/12/30 11:33:51;;;;;;;7.43;1.70;;;;;;;-145.18;100.00;60484.78;5050233;28;20087;-63
2022/12/30 11:36:28;;;;;;;6.90;1.40;;;;;;;-145.18;100.00;60484.78;5044991;28;20118;-63
2022/12/30 11:38:56;;;;;;;9.33;1.97;;;;;;;-145.18;100.00;60484.78;5040786;28;20029;-63
2022/12/30 11:41:29;;;;;;;8.30;1.70;;;;;;;-145.18;100.00;60484.78;5047774;28;20074;-63
2022/12/30 11:43:58;;;;;;;10.60;3.43;;;;;;;-145.18;100.00;60484.78;5046333;28;20571;-63
2022/12/30 11:46:28;;;;;;;4.97;1.47;;;;;;;-145.18;100.00;60484.78;5040893;28;20491;-63
2022/12/30 11:49:00;;;;;;;8.03;1.57;;;;;;;-145.18;100.00;60484.78;5043176;28;20037;-63
2022/12/30 11:51:44;;;;;;;9.63;1.65;;;;;;;-145.18;100.00;60484.78;5044565;28;20115;-62
2022/12/30 11:54:09;;;;;;;8.63;1.67;;;;;;;-145.18;100.00;60484.78;5061546;28;20035;-63
2022/12/30 11:56:35;;;;;;;8.97;1.73;;;;;;;-145.18;100.00;60484.78;5054366;28;20037;-63
2022/12/30 11:59:16;;;;;;;9.13;1.50;;;;;;;-145.18;100.00;60484.78;5042240;28;20120;-63